Archiv-/Tagesdaten

--Timestamp---	Temp	Chill	HIndex	Humid	Dewpt	 Wind 	HiWind	WindDir	Rain 	Barom	Solar	 ET  	 UV 
--------------	----	-----	------	-----	-----	------	------	-------	-----	-----	-----	-----	----
20100613 00:00	17.3	17.3	17.3	88	15.3	6	11	225	0.2	1011.3	0	0.025	0.0
20100613 00:05	17.3	17.3	17.3	88	15.3	5	11	248	0.0	1011.3	0	0.000	0.0
20100613 00:10	17.3	17.3	17.3	88	15.3	6	11	248	0.0	1011.4	0	0.000	0.0
20100613 00:15	17.2	17.2	17.2	88	15.2	5	10	248	0.0	1011.6	0	0.000	0.0
20100613 00:20	17.1	17.1	17.1	88	15.1	6	11	248	0.0	1011.6	0	0.000	0.0
20100613 00:25	17.1	17.1	17.1	87	14.9	6	14	225	0.0	1011.6	0	0.000	0.0
20100613 00:30	17.1	17.1	17.1	87	14.9	5	14	225	0.0	1011.4	0	0.000	0.0
20100613 00:35	17.1	17.1	17.1	87	14.9	3	8	248	0.0	1011.4	0	0.000	0.0
20100613 00:40	17.2	17.2	17.2	87	15.0	5	10	248	0.0	1011.6	0	0.000	0.0
20100613 00:45	17.2	17.2	17.2	87	15.0	6	10	225	0.0	1011.6	0	0.000	0.0
20100613 00:50	17.2	17.2	17.2	87	15.0	5	8	225	0.0	1011.7	0	0.000	0.0
20100613 00:55	17.2	17.2	17.2	86	14.8	2	6	225	0.0	1011.7	0	0.000	0.0
20100613 01:00	17.2	17.2	17.2	86	14.8	5	8	225	0.0	1011.6	0	0.025	0.0
20100613 01:05	17.2	17.2	17.2	86	14.8	2	10	225	0.0	1011.6	0	0.000	0.0
20100613 01:10	17.2	17.2	17.2	86	14.8	2	6	225	0.0	1011.6	0	0.000	0.0
20100613 01:15	17.2	17.2	17.2	86	14.8	3	6	225	0.0	1011.6	0	0.000	0.0
20100613 01:20	17.2	17.2	17.2	86	14.8	2	5	225	0.0	1011.6	0	0.000	0.0
20100613 01:25	17.1	17.1	17.1	86	14.7	0	3	225	0.0	1011.4	0	0.000	0.0
20100613 01:30	17.1	17.1	17.1	85	14.6	0	5	225	0.0	1011.4	0	0.000	0.0
20100613 01:35	17.2	17.2	17.2	86	14.8	0	2	225	0.0	1011.4	0	0.000	0.0
20100613 01:40	17.2	17.2	17.2	85	14.6	2	6	225	0.0	1011.6	0	0.000	0.0
20100613 01:45	17.2	17.2	17.2	85	14.6	2	6	225	0.0	1011.4	0	0.000	0.0
20100613 01:50	17.2	17.2	17.2	85	14.6	0	3	225	0.0	1011.5	0	0.000	0.0
20100613 01:55	17.2	17.2	17.2	85	14.6	2	6	225	0.0	1011.6	0	0.000	0.0
20100613 02:00	17.2	17.2	17.2	86	14.8	3	6	225	0.0	1011.6	0	0.025	0.0
20100613 02:05	17.2	17.2	17.2	86	14.8	0	3	225	0.0	1011.7	0	0.000	0.0
20100613 02:10	17.1	17.1	17.1	86	14.7	0	2	225	0.0	1011.7	0	0.000	0.0
20100613 02:15	17.1	17.1	17.1	86	14.7	0	3	225	0.0	1011.7	0	0.000	0.0
20100613 02:20	17.0	17.0	17.0	86	14.6	0	3	225	0.0	1011.7	0	0.000	0.0
20100613 02:25	17.1	17.1	17.1	87	14.9	0	3	225	0.0	1011.7	0	0.000	0.0
20100613 02:30	17.1	17.1	17.1	87	14.9	2	6	225	0.0	1011.6	0	0.000	0.0
20100613 02:35	17.1	17.1	17.1	87	14.9	2	6	225	0.0	1011.6	0	0.000	0.0
20100613 02:40	17.0	17.0	17.0	87	14.8	3	6	225	0.0	1011.7	0	0.000	0.0
20100613 02:45	16.9	16.9	16.9	87	14.8	3	6	225	0.0	1011.6	0	0.000	0.0
20100613 02:50	16.9	16.9	16.9	88	14.9	5	8	225	0.0	1011.7	0	0.000	0.0
20100613 02:55	16.8	16.8	16.8	88	14.8	6	8	225	0.0	1011.7	0	0.000	0.0
20100613 03:00	16.8	16.8	16.8	88	14.8	3	6	225	0.0	1011.7	0	0.025	0.0
20100613 03:05	16.7	16.7	16.7	88	14.7	3	6	225	0.0	1012.0	0	0.000	0.0
20100613 03:10	16.7	16.7	16.7	88	14.7	2	5	225	0.0	1012.0	0	0.000	0.0
20100613 03:15	16.7	16.7	16.7	88	14.7	2	5	225	0.0	1012.0	0	0.000	0.0
20100613 03:20	16.7	16.7	16.7	88	14.7	3	8	225	0.0	1012.0	0	0.000	0.0
20100613 03:25	16.6	16.6	16.6	88	14.6	3	6	225	0.0	1012.0	0	0.000	0.0
20100613 03:30	16.6	16.6	16.6	88	14.6	2	6	225	0.0	1012.0	0	0.000	0.0
20100613 03:35	16.6	16.6	16.6	88	14.6	3	6	225	0.0	1012.0	0	0.000	0.0
20100613 03:40	16.6	16.6	16.6	88	14.6	0	3	225	0.0	1011.9	0	0.000	0.0
20100613 03:45	16.6	16.6	16.6	88	14.6	0	5	225	0.0	1011.9	0	0.000	0.0
20100613 03:50	16.6	16.6	16.6	88	14.6	2	5	225	0.0	1011.9	0	0.000	0.0
20100613 03:55	16.5	16.5	16.5	88	14.5	0	5	225	0.0	1011.8	0	0.000	0.0
20100613 04:00	16.4	16.4	16.4	88	14.4	0	3	225	0.0	1011.8	0	0.000	0.0
20100613 04:05	16.4	16.4	16.4	88	14.4	5	10	225	0.0	1011.8	0	0.000	0.0
20100613 04:10	16.4	16.4	16.4	88	14.4	3	10	225	0.0	1011.7	0	0.000	0.0
20100613 04:15	16.3	16.3	16.3	88	14.3	5	8	225	0.0	1011.6	0	0.000	0.0
20100613 04:20	16.3	16.3	16.3	88	14.3	3	8	225	0.0	1011.7	0	0.000	0.0
20100613 04:25	16.3	16.3	16.3	88	14.3	3	6	225	0.0	1011.7	0	0.000	0.0
20100613 04:30	16.3	16.3	16.3	88	14.3	3	6	225	0.0	1011.7	0	0.000	0.0
20100613 04:35	16.3	16.3	16.3	88	14.3	0	5	225	0.0	1011.7	0	0.000	0.0
20100613 04:40	16.3	16.3	16.3	88	14.3	3	6	225	0.0	1011.7	0	0.000	0.0
20100613 04:45	16.3	16.3	16.3	88	14.3	3	8	225	0.0	1011.8	0	0.000	0.0
20100613 04:50	16.3	16.3	16.3	88	14.3	5	8	225	0.0	1011.8	0	0.000	0.0
20100613 04:55	16.3	16.3	16.3	88	14.3	6	10	225	0.0	1011.8	0	0.000	0.0
20100613 05:00	16.3	16.3	16.3	88	14.3	3	8	225	0.0	1011.8	0	0.025	0.0
20100613 05:05	16.2	16.2	16.2	88	14.2	3	8	225	0.0	1011.9	0	0.000	0.0
20100613 05:10	16.2	16.2	16.2	87	14.0	5	8	225	0.0	1011.9	0	0.000	0.0
20100613 05:15	16.1	16.1	16.1	87	13.9	3	6	225	0.0	1011.8	0	0.000	0.0
20100613 05:20	16.1	16.1	16.1	87	13.9	5	8	225	0.0	1011.8	0	0.000	0.0
20100613 05:25	16.1	16.1	16.1	87	13.9	5	10	315	0.0	1011.8	2	0.000	0.0
20100613 05:30	16.1	16.1	16.1	86	13.7	3	6	225	0.0	1011.8	5	0.000	0.0
20100613 05:35	16.1	16.1	16.1	87	13.9	5	8	225	0.0	1012.0	7	0.000	0.0
20100613 05:40	16.0	16.0	16.0	87	13.8	5	8	225	0.0	1012.0	10	0.000	0.0
20100613 05:45	16.0	16.0	16.0	87	13.8	5	8	225	0.0	1012.0	18	0.000	0.0
20100613 05:50	16.0	16.0	16.0	86	13.7	5	8	225	0.0	1012.0	13	0.000	0.0
20100613 05:55	16.0	16.0	16.0	86	13.7	3	8	248	0.0	1012.1	8	0.000	0.0
20100613 06:00	16.0	16.0	16.0	86	13.7	5	8	270	0.0	1012.2	7	0.000	0.0
20100613 06:05	16.0	16.0	16.0	86	13.7	3	6	248	0.0	1012.3	10	0.000	0.0
20100613 06:10	16.1	16.1	16.1	86	13.7	0	2	248	0.0	1012.2	15	0.000	0.0
20100613 06:15	16.1	16.1	16.1	86	13.7	0	2	248	0.0	1012.1	23	0.000	0.0
20100613 06:20	16.1	16.1	16.1	86	13.8	0	2	248	0.0	1012.2	31	0.000	0.0
20100613 06:25	16.2	16.2	16.2	86	13.8	0	0	-100000	0.0	1012.2	26	0.000	0.0
20100613 06:30	16.2	16.2	16.2	86	13.9	0	3	68	0.0	1012.3	26	0.000	0.0
20100613 06:35	16.3	16.3	16.3	85	13.7	2	5	315	0.0	1012.3	29	0.000	0.0
20100613 06:40	16.3	16.3	16.3	85	13.8	2	5	315	0.0	1012.3	41	0.000	0.0
20100613 06:45	16.3	16.3	16.3	86	14.0	2	5	315	0.0	1012.3	45	0.000	0.0
20100613 06:50	16.4	16.4	16.4	85	13.9	2	5	315	0.0	1012.1	52	0.000	0.0
20100613 06:55	16.4	16.4	16.4	86	14.1	0	5	292	0.0	1012.2	49	0.000	0.0
20100613 07:00	16.5	16.5	16.5	86	14.1	0	2	292	0.0	1012.2	47	0.025	0.0
20100613 07:05	16.6	16.6	16.6	86	14.2	0	2	292	0.0	1012.3	39	0.000	0.0
20100613 07:10	16.6	16.6	16.6	86	14.2	0	2	22	0.0	1012.2	31	0.000	0.0
20100613 07:15	16.6	16.6	16.6	86	14.3	0	3	22	0.0	1012.2	23	0.000	0.0
20100613 07:20	16.7	16.7	16.7	86	14.3	0	2	0	0.0	1012.3	18	0.000	0.0
20100613 07:25	16.7	16.7	16.7	86	14.3	0	2	0	0.0	1012.2	20	0.000	0.0
20100613 07:30	16.7	16.7	16.7	87	14.5	0	2	0	0.0	1012.3	29	0.000	0.0
20100613 07:35	16.7	16.7	16.7	86	14.3	0	0	-100000	0.0	1012.2	44	0.000	0.0
20100613 07:40	16.7	16.7	16.7	87	14.5	0	2	0	0.0	1012.3	44	0.000	0.0
20100613 07:45	16.7	16.7	16.7	87	14.5	0	2	0	0.0	1012.4	38	0.000	0.0
20100613 07:50	16.8	16.8	16.8	87	14.6	2	3	0	0.0	1012.4	33	0.000	0.0
20100613 07:55	16.8	16.8	16.8	87	14.6	0	2	0	0.0	1012.5	39	0.000	0.0
20100613 08:00	16.8	16.8	16.8	87	14.6	0	2	0	0.0	1012.5	33	0.025	0.0
20100613 08:05	16.8	16.8	16.8	86	14.4	0	0	-100000	0.0	1012.4	-100000	0.000	0.0
20100613 08:10	16.8	16.8	16.8	87	14.7	0	2	0	0.0	1012.3	34	0.000	0.0
20100613 08:15	16.8	16.8	16.8	87	14.7	0	2	0	0.0	1012.3	48	0.000	0.0
20100613 08:20	16.9	16.9	16.9	88	14.9	0	0	-100000	0.0	1012.3	68	0.000	0.0
20100613 08:25	16.9	16.9	16.9	88	14.9	0	0	-100000	0.0	1012.2	68	0.000	0.0
20100613 08:30	16.9	16.9	16.9	88	14.9	0	0	-100000	0.0	1012.1	69	0.000	0.3
20100613 08:35	16.8	16.8	16.8	88	14.8	3	8	22	0.0	1012.2	70	0.000	0.2
20100613 08:40	16.8	16.8	16.8	88	14.8	2	6	22	0.0	1012.3	63	0.000	0.0
20100613 08:45	16.7	-100000.0	16.7	88	14.7	-100000	0	-100000	0.0	1012.3	52	0.000	0.0
20100613 08:50	16.7	16.7	16.7	88	14.7	5	8	22	0.0	1012.3	51	0.000	0.0
20100613 08:55	16.6	-100000.0	16.6	87	14.4	-100000	0	-100000	0.0	1012.3	69	0.000	0.0
20100613 09:00	16.6	16.6	16.6	87	14.4	5	6	22	0.0	1012.4	69	0.025	0.0
20100613 09:05	16.6	16.6	16.6	87	14.4	2	5	22	0.0	1012.7	67	0.000	0.0
20100613 09:10	16.6	16.6	16.6	87	14.4	6	6	22	0.0	1012.7	74	0.000	0.5
20100613 09:15	16.6	16.6	16.6	87	14.4	3	10	22	0.0	1012.6	91	0.000	0.6
20100613 09:20	16.6	16.6	16.6	87	14.4	3	6	22	0.0	1012.7	94	0.000	0.7
20100613 09:25	16.6	16.6	16.6	87	14.4	5	10	22	0.0	1012.7	86	0.000	0.7
20100613 09:30	16.6	16.6	16.6	87	14.4	5	8	22	0.0	1012.7	93	0.000	0.7
20100613 09:35	16.6	16.6	16.6	87	14.4	5	16	45	0.0	1012.7	115	0.000	0.8
20100613 09:40	16.7	16.7	16.7	87	14.5	3	8	22	0.0	1012.7	133	0.000	1.0
20100613 09:45	16.7	16.7	16.7	86	14.3	6	13	22	0.0	1012.8	135	0.000	1.1
20100613 09:50	16.7	16.7	16.7	86	14.3	8	14	45	0.0	1012.8	187	0.000	1.3
20100613 09:55	16.8	16.8	16.8	87	14.7	2	6	45	0.0	1012.9	247	0.000	1.7
20100613 10:00	17.1	17.1	17.1	87	14.9	2	8	22	0.0	1012.7	292	0.076	2.1
20100613 10:05	17.1	17.1	17.1	85	14.5	8	14	22	0.0	1012.9	299	0.000	2.3
20100613 10:10	17.1	17.1	17.1	86	14.7	5	13	68	0.0	1013.0	282	0.000	2.2
20100613 10:15	17.2	17.2	17.2	85	14.6	5	11	22	0.0	1013.0	249	0.000	2.0
20100613 10:20	17.2	17.2	17.2	84	14.4	6	11	22	0.0	1012.9	264	0.000	2.1
20100613 10:25	17.1	17.1	17.1	84	14.3	8	14	22	0.0	1012.8	248	0.000	2.1
20100613 10:30	17.1	17.1	17.1	84	14.3	6	10	22	0.0	1012.8	244	0.000	2.2
20100613 10:35	17.1	17.1	17.1	84	14.3	6	11	22	0.0	1012.8	296	0.000	2.5
20100613 10:40	17.3	17.3	17.3	83	14.4	6	11	45	0.0	1012.7	395	0.000	4.1
20100613 10:45	17.4	17.4	17.4	82	14.3	8	14	22	0.0	1012.7	494	0.000	4.2
20100613 10:50	17.6	17.6	17.6	81	14.3	6	16	22	0.0	1012.7	454	0.000	4.2
20100613 10:55	17.6	17.6	17.6	79	13.9	8	14	45	0.0	1012.7	408	0.000	3.6
20100613 11:00	17.6	17.6	17.6	80	14.1	6	11	45	0.0	1012.7	321	0.203	3.0
20100613 11:05	17.6	17.6	17.6	80	14.1	6	11	68	0.0	1012.7	333	0.000	3.1
20100613 11:10	17.8	17.8	17.8	81	14.5	6	10	45	0.0	1012.7	439	0.000	4.0
20100613 11:15	17.9	17.9	17.9	79	14.2	6	14	68	0.0	1012.7	406	0.000	3.7
20100613 11:20	17.9	17.9	17.9	78	14.0	8	14	45	0.0	1012.6	407	0.000	3.8
20100613 11:25	17.9	17.9	17.9	77	13.8	8	13	68	0.0	1012.6	386	0.000	3.6
20100613 11:30	17.9	17.9	17.9	77	13.8	8	13	22	0.0	1012.5	315	0.000	3.2
20100613 11:35	17.9	17.9	17.9	78	14.0	8	14	45	0.0	1012.5	370	0.000	3.6
20100613 11:40	18.0	18.0	18.0	79	14.3	8	14	45	0.0	1012.4	376	0.000	3.8
20100613 11:45	18.1	18.1	18.1	78	14.2	8	14	45	0.0	1012.4	355	0.000	3.7
20100613 11:50	18.1	18.1	18.1	78	14.2	8	16	45	0.0	1012.2	360	0.000	3.8
20100613 11:55	18.1	18.1	18.1	77	14.0	10	18	22	0.0	1012.3	419	0.000	4.3
20100613 12:00	18.2	18.2	18.2	78	14.3	10	18	45	0.0	1012.2	532	0.229	5.1
20100613 12:05	18.3	18.3	18.3	77	14.2	11	18	45	0.0	1012.2	428	0.000	4.5
20100613 12:10	18.1	18.1	18.1	77	14.0	10	18	22	0.0	1012.1	385	0.000	4.1
20100613 12:15	18.2	18.2	18.2	77	14.1	10	18	22	0.0	1012.2	403	0.000	4.2
20100613 12:20	18.2	18.2	18.2	78	14.3	10	19	45	0.0	1012.2	414	0.000	4.2
20100613 12:25	18.3	18.3	18.3	77	14.2	8	19	22	0.0	1012.2	399	0.000	4.1
20100613 12:30	18.3	18.3	18.3	77	14.2	10	18	45	0.0	1012.2	369	0.000	3.9
20100613 12:35	18.3	18.3	18.3	78	14.4	8	16	45	0.0	1012.2	389	0.000	4.1
20100613 12:40	18.3	18.3	18.3	77	14.2	11	19	22	0.0	1012.1	351	0.000	3.7
20100613 12:45	18.3	18.3	18.3	78	14.4	6	16	22	0.0	1012.2	328	0.000	3.5
20100613 12:50	18.4	18.4	18.4	79	14.7	5	14	0	0.0	1012.2	294	0.000	3.2
20100613 12:55	18.4	18.4	18.4	78	14.5	5	10	0	0.0	1012.2	238	0.000	2.6
20100613 13:00	18.2	18.2	18.2	79	14.5	8	19	22	0.0	1012.2	230	0.229	2.5
20100613 13:05	17.9	17.9	17.9	79	14.2	6	18	338	0.0	1012.3	227	0.000	2.5
20100613 13:10	17.8	17.8	17.8	79	14.1	8	18	22	0.0	1012.3	207	0.000	2.3
20100613 13:15	17.5	17.5	17.5	78	13.6	10	19	22	0.0	1012.3	187	0.000	2.0
20100613 13:20	17.2	17.2	17.2	78	13.3	10	18	22	0.0	1012.3	192	0.000	2.1
20100613 13:25	17.1	17.1	17.1	79	13.4	10	18	22	0.0	1012.2	212	0.000	2.3
20100613 13:30	17.2	17.2	17.2	80	13.7	6	18	22	0.0	1012.2	205	0.000	2.3
20100613 13:35	17.1	17.1	17.1	78	13.2	10	19	22	0.0	1012.1	216	0.000	2.4
20100613 13:40	16.9	16.9	16.9	77	12.9	11	19	22	0.0	1012.1	237	0.000	2.6
20100613 13:45	16.9	16.9	16.9	79	13.3	8	18	22	0.0	1012.0	210	0.000	2.3
20100613 13:50	16.9	16.9	16.9	77	12.9	11	19	45	0.0	1012.0	181	0.000	1.9
20100613 13:55	16.8	16.8	16.8	78	13.0	10	18	45	0.0	1012.0	173	0.000	1.8
20100613 14:00	16.8	16.8	16.8	79	13.2	8	14	22	0.0	1011.9	167	0.127	1.8
20100613 14:05	16.9	16.9	16.9	78	13.0	8	14	22	0.0	1011.9	170	0.000	1.8
20100613 14:10	16.9	16.9	16.9	78	13.0	8	16	22	0.0	1012.0	154	0.000	1.6
20100613 14:15	16.9	16.9	16.9	79	13.2	8	18	22	0.0	1011.9	155	0.000	1.7
20100613 14:20	16.9	16.9	16.9	78	13.0	10	21	22	0.0	1011.9	186	0.000	2.0
20100613 14:25	16.9	16.9	16.9	78	13.0	10	18	45	0.0	1011.9	189	0.000	2.0
20100613 14:30	16.8	16.8	16.8	78	13.0	11	18	22	0.0	1011.9	174	0.000	1.8
20100613 14:35	16.8	16.8	16.8	78	13.0	8	18	22	0.0	1011.9	162	0.000	1.6
20100613 14:40	16.9	16.9	16.9	78	13.0	11	19	22	0.0	1011.9	165	0.000	1.6
20100613 14:45	16.8	16.8	16.8	78	13.0	10	18	45	0.0	1012.0	144	0.000	1.4
20100613 14:50	16.8	16.8	16.8	77	12.8	8	14	45	0.0	1012.1	113	0.000	1.2
20100613 14:55	16.8	16.8	16.8	78	13.0	8	13	45	0.0	1012.2	118	0.000	1.2
20100613 15:00	16.9	16.9	16.9	78	13.0	5	18	22	0.0	1012.1	107	0.102	1.0
20100613 15:05	16.8	16.8	16.8	78	13.0	8	18	45	0.0	1012.0	98	0.000	1.0
20100613 15:10	16.8	16.8	16.8	77	12.8	6	14	45	0.0	1012.0	95	0.000	0.9
20100613 15:15	16.8	16.8	16.8	78	13.0	5	16	90	0.0	1011.8	95	0.000	0.8
20100613 15:20	16.8	16.8	16.8	78	12.9	8	19	22	0.0	1011.7	126	0.000	1.1
20100613 15:25	16.8	16.8	16.8	78	13.0	8	16	22	0.0	1011.6	128	0.000	1.2
20100613 15:30	16.8	16.8	16.8	79	13.2	8	11	22	0.0	1011.4	134	0.000	1.2
20100613 15:35	16.8	16.8	16.8	80	13.4	10	18	22	0.0	1011.3	135	0.000	1.2
20100613 15:40	16.8	16.8	16.8	80	13.4	10	18	22	0.0	1011.3	163	0.000	1.4
20100613 15:45	16.8	16.8	16.8	80	13.4	8	14	45	0.0	1011.3	155	0.000	1.5
20100613 15:50	16.8	16.8	16.8	79	13.2	10	16	22	0.0	1011.3	105	0.000	1.0
20100613 15:55	16.8	16.8	16.8	79	13.2	8	18	22	0.0	1011.4	59	0.000	0.3
20100613 16:00	16.8	16.8	16.8	79	13.1	8	16	22	0.0	1011.4	59	0.000	0.5
20100613 16:05	16.7	16.7	16.7	78	12.9	6	18	22	0.0	1011.4	89	0.076	0.8
20100613 16:10	16.8	16.8	16.8	78	12.9	11	16	22	0.0	1011.4	94	0.000	0.8
20100613 16:15	16.8	16.8	16.8	79	13.1	10	18	22	0.0	1011.2	103	0.000	0.9
20100613 16:20	16.8	16.8	16.8	79	13.2	8	18	22	0.0	1011.1	84	0.000	0.8
20100613 16:25	16.8	16.8	16.8	79	13.2	6	10	22	0.0	1011.1	78	0.000	0.7
20100613 16:30	16.9	16.9	16.9	80	13.4	5	10	0	0.0	1011.0	118	0.000	1.0
20100613 16:35	17.0	17.0	17.0	81	13.7	2	10	22	0.0	1010.8	187	0.000	1.3
20100613 16:40	17.1	17.1	17.1	80	13.6	5	16	22	0.0	1010.8	138	0.000	1.0
20100613 16:45	17.2	17.2	17.2	80	13.7	3	10	22	0.0	1010.9	111	0.000	0.8
20100613 16:50	17.2	17.2	17.2	79	13.5	6	11	45	0.0	1011.1	87	0.000	0.7
20100613 16:55	17.1	17.1	17.1	79	13.4	6	14	22	0.0	1011.2	55	0.000	0.2
20100613 17:00	17.0	17.0	17.0	79	13.3	5	8	45	0.0	1011.2	42	0.076	0.0
20100613 17:05	16.9	16.9	16.9	80	13.5	3	6	22	0.0	1011.2	32	0.000	0.0
20100613 17:10	16.9	16.9	16.9	81	13.6	2	6	22	0.0	1011.2	27	0.000	0.0
20100613 17:15	16.9	16.9	16.9	81	13.6	3	6	22	0.0	1011.2	23	0.000	0.0
20100613 17:20	16.8	16.8	16.8	81	13.5	3	6	22	0.0	1011.2	25	0.000	0.0
20100613 17:25	16.9	16.9	16.9	82	13.8	0	0	-100000	0.0	1011.1	27	0.000	0.0
20100613 17:30	16.9	16.9	16.9	82	13.8	0	5	22	0.0	1011.0	34	0.000	0.0
20100613 17:35	16.9	16.9	16.9	82	13.8	0	2	22	0.0	1011.0	39	0.000	0.0
20100613 17:40	16.9	16.9	16.9	82	13.8	2	6	22	0.0	1011.0	43	0.000	0.0
20100613 17:45	16.8	16.8	16.8	82	13.7	3	8	338	0.0	1010.8	48	0.000	0.0
20100613 17:50	16.8	16.8	16.8	82	13.7	2	6	0	0.0	1010.8	51	0.000	0.0
20100613 17:55	16.9	16.9	16.9	82	13.8	2	6	0	0.0	1010.6	51	0.000	0.0
20100613 18:00	16.9	16.9	16.9	83	14.0	2	8	22	0.0	1010.4	50	0.025	0.0
20100613 18:05	16.8	16.8	16.8	82	13.7	5	11	22	0.0	1010.1	98	0.000	0.3
20100613 18:10	16.9	16.9	16.9	83	14.0	3	11	0	0.0	1010.2	134	0.000	0.6
20100613 18:15	17.0	17.0	17.0	83	14.1	3	14	338	0.0	1010.1	142	0.000	0.7
20100613 18:20	16.9	16.9	16.9	82	13.8	8	18	22	0.0	1009.7	170	0.000	0.8
20100613 18:25	16.8	16.8	16.8	81	13.5	10	21	22	0.0	1009.7	155	0.000	0.7
20100613 18:30	16.8	16.8	16.8	81	13.5	10	16	22	0.0	1009.6	123	0.000	0.6
20100613 18:35	16.8	16.8	16.8	81	13.5	8	16	22	0.0	1009.5	89	0.000	0.3
20100613 18:40	16.8	16.8	16.8	81	13.5	10	18	45	0.0	1009.5	50	0.000	0.0
20100613 18:45	16.7	16.7	16.7	82	13.6	8	18	22	0.0	1009.5	43	0.000	0.0
20100613 18:50	16.7	16.7	16.7	84	13.9	2	6	22	0.0	1009.8	29	0.000	0.0
20100613 18:55	16.6	16.6	16.6	84	13.9	2	6	22	0.2	1009.6	33	0.000	0.0
20100613 19:00	16.5	16.5	16.5	85	14.0	6	11	22	0.0	1009.5	54	0.076	0.0
20100613 19:05	16.4	16.4	16.4	85	13.9	3	8	22	0.0	1009.5	41	0.000	0.0
20100613 19:10	16.3	16.3	16.3	86	14.0	3	8	22	0.0	1009.6	36	0.000	0.0
20100613 19:15	16.3	16.3	16.3	86	13.9	3	8	22	0.0	1009.6	32	0.000	0.0
20100613 19:20	16.3	16.3	16.3	86	13.9	5	8	22	0.0	1009.6	32	0.000	0.0
20100613 19:25	16.2	16.2	16.2	86	13.8	5	6	22	0.0	1009.4	25	0.000	0.0
20100613 19:30	16.1	16.1	16.1	86	13.8	6	8	22	0.0	1009.5	15	0.000	0.0
20100613 19:35	16.1	16.1	16.1	86	13.7	5	8	22	0.0	1009.4	14	0.000	0.0
20100613 19:40	16.1	16.1	16.1	85	13.5	3	8	22	0.0	1009.5	13	0.000	0.0
20100613 19:45	16.1	16.1	16.1	86	13.7	0	3	22	0.0	1009.7	7	0.000	0.0
20100613 19:50	16.1	16.1	16.1	86	13.7	0	2	22	0.0	1009.7	5	0.000	0.0
20100613 19:55	16.0	16.0	16.0	86	13.7	0	2	22	0.0	1009.7	5	0.000	0.0
20100613 20:00	16.0	16.0	16.0	87	13.8	0	6	22	0.0	1009.7	5	0.025	0.0
20100613 20:05	15.9	15.9	15.9	87	13.8	0	6	22	0.0	1009.6	5	0.000	0.0
20100613 20:10	15.8	15.8	15.8	86	13.5	2	6	22	0.0	1009.7	7	0.000	0.0
20100613 20:15	15.8	15.8	15.8	87	13.7	0	5	45	0.0	1009.6	7	0.000	0.0
20100613 20:20	15.8	15.8	15.8	87	13.7	3	8	315	0.0	1009.8	5	0.000	0.0
20100613 20:25	15.8	15.8	15.8	87	13.7	2	10	292	0.0	1009.6	5	0.000	0.0
20100613 20:30	15.7	15.7	15.7	87	13.6	2	6	292	0.0	1009.7	2	0.000	0.0
20100613 20:35	15.7	15.7	15.7	87	13.5	0	3	338	0.0	1009.7	0	0.000	0.0
20100613 20:40	15.6	15.6	15.6	88	13.6	0	5	315	0.0	1009.7	0	0.000	0.0
20100613 20:45	15.5	15.5	15.5	88	13.5	3	8	315	0.0	1009.7	0	0.000	0.0
20100613 20:50	15.4	15.4	15.4	88	13.4	6	14	315	0.0	1009.7	0	0.000	0.0
20100613 20:55	15.2	15.2	15.2	88	13.2	6	8	292	0.2	1009.9	-100000	0.000	0.0
20100613 21:00	15.0	15.0	15.0	89	13.2	8	18	315	0.2	1010.1	0	0.000	0.0
20100613 21:05	15.0	15.0	15.0	89	13.2	6	10	292	0.4	1009.9	0	0.000	0.0
20100613 21:10	14.8	14.8	14.8	89	13.0	13	21	315	0.2	1010.0	0	0.000	0.0
20100613 21:15	14.6	14.6	14.6	90	13.0	8	14	315	0.2	1010.2	0	0.000	0.0
20100613 21:20	14.4	14.4	14.4	90	12.8	11	18	315	0.2	1010.3	0	0.000	0.0
20100613 21:25	14.3	14.3	14.3	90	12.7	13	24	315	0.0	1010.4	0	0.000	0.0
20100613 21:30	14.2	14.2	14.2	91	12.8	10	19	315	0.2	1010.6	0	0.000	0.0
20100613 21:35	14.1	14.1	14.1	91	12.7	11	23	315	0.8	1010.8	0	0.000	0.0
20100613 21:40	14.1	14.1	14.1	91	12.6	13	21	315	0.6	1010.9	0	0.000	0.0
20100613 21:45	14.0	14.0	14.0	91	12.6	13	21	315	0.6	1010.8	0	0.000	0.0
20100613 21:50	14.0	14.0	14.0	92	12.7	2	13	292	0.6	1010.7	0	0.000	0.0
20100613 21:55	14.0	14.0	14.0	92	12.7	3	8	292	0.2	1010.7	0	0.000	0.0
20100613 22:00	13.9	13.9	13.9	92	12.7	3	10	315	0.0	1010.6	0	0.025	0.0
20100613 22:05	13.9	13.9	13.9	92	12.7	2	8	338	0.2	1010.6	0	0.000	0.0
20100613 22:10	13.9	13.9	13.9	92	12.6	3	11	292	0.4	1010.6	0	0.000	0.0
20100613 22:15	13.9	13.9	13.9	92	12.6	3	14	292	0.4	1010.7	0	0.000	0.0
20100613 22:20	13.8	13.8	13.8	93	12.7	0	6	315	0.2	1010.8	0	0.000	0.0
20100613 22:25	13.8	13.8	13.8	92	12.6	3	13	22	0.0	1010.6	0	0.000	0.0
20100613 22:30	13.8	13.8	13.8	92	12.5	5	10	22	0.2	1010.7	0	0.000	0.0
20100613 22:35	13.8	13.8	13.8	92	12.5	2	6	22	0.2	1010.7	0	0.000	0.0
20100613 22:40	13.8	13.8	13.8	93	12.7	2	6	22	0.0	1010.6	0	0.000	0.0
20100613 22:45	13.8	13.8	13.8	93	12.7	2	11	0	0.2	1010.7	0	0.000	0.0
20100613 22:50	13.8	13.8	13.8	93	12.7	2	5	22	0.0	1010.8	0	0.000	0.0
20100613 22:55	13.8	13.8	13.8	93	12.7	0	5	22	0.0	1010.8	0	0.000	0.0
20100613 23:00	13.8	13.8	13.8	93	12.7	0	3	22	0.2	1010.8	0	0.000	0.0
20100613 23:05	13.8	13.8	13.8	93	12.7	0	6	292	0.0	1010.7	0	0.000	0.0
20100613 23:10	13.8	13.8	13.8	93	12.7	3	8	292	0.0	1010.8	0	0.000	0.0
20100613 23:15	13.7	13.7	13.7	93	12.6	5	8	315	0.2	1010.9	0	0.000	0.0
20100613 23:20	13.8	13.8	13.8	93	12.7	3	6	315	0.0	1011.0	0	0.000	0.0
20100613 23:25	13.8	13.8	13.8	93	12.7	5	8	315	0.2	1011.0	0	0.000	0.0
20100613 23:30	13.8	13.8	13.8	93	12.7	6	10	292	0.2	1011.0	0	0.000	0.0
20100613 23:35	13.8	13.8	13.8	93	12.7	5	10	292	0.2	1010.9	0	0.000	0.0
20100613 23:40	13.8	13.8	13.8	93	12.7	5	8	292	0.2	1010.8	0	0.000	0.0
20100613 23:45	13.7	13.7	13.7	93	12.6	6	14	315	0.2	1010.7	0	0.000	0.0
20100613 23:50	13.7	13.7	13.7	93	12.6	6	10	292	0.2	1010.7	0	0.000	0.0
20100613 23:55	13.7	13.7	13.7	93	12.6	6	11	292	0.0	1010.7	0	0.000	0.0



Please note the license to use and transfer of this data:
http://creativecommons.org/licenses/by-nc-sa/3.0/deed.en

Bitte beachten sie die Lizenz zur Verwertung und Weitergabe der Daten:
http://creativecommons.org/licenses/by-nc-sa/3.0/deed.de

zurück zur Übersicht der Archivdaten (Monats und Tagesdaten)

Cookies helfen bei der Bereitstellung von Inhalten. Durch die Nutzung dieser Seiten erklärst du dich damit einverstanden, dass Cookies auf deinem Rechner gespeichert werden. Weitere Information